createdAt,value
2019-05-12T00:00:21.153Z,7.27
2019-05-12T00:02:49.589Z,7.27
2019-05-12T00:05:18.673Z,7.23
2019-05-12T00:07:48.679Z,7.20
2019-05-12T00:10:18.938Z,7.19
2019-05-12T00:12:48.504Z,7.16
2019-05-12T00:15:19.174Z,7.13
2019-05-12T00:17:48.571Z,7.09
2019-05-12T00:20:18.419Z,7.06
2019-05-12T00:22:49.135Z,7.00
2019-05-12T00:25:18.550Z,6.96
2019-05-12T00:27:48.620Z,6.95
2019-05-12T00:30:38.850Z,6.94
2019-05-12T00:33:09.417Z,6.92
2019-05-12T00:35:38.299Z,6.87
2019-05-12T00:38:09.123Z,6.83
2019-05-12T00:40:39.106Z,6.81
2019-05-12T00:43:08.647Z,6.79
2019-05-12T00:45:38.783Z,6.77
2019-05-12T00:48:09.254Z,6.78
2019-05-12T00:50:38.283Z,6.77
2019-05-12T00:53:09.144Z,6.75
2019-05-12T00:55:38.028Z,6.73
2019-05-12T00:58:08.331Z,6.71
2019-05-12T01:00:40.618Z,6.67
2019-05-12T01:03:08.756Z,6.63
2019-05-12T01:05:38.293Z,6.60
2019-05-12T01:08:09.110Z,6.58
2019-05-12T01:10:38.905Z,6.54
2019-05-12T01:13:08.774Z,6.52
2019-05-12T01:15:38.172Z,6.49
2019-05-12T01:18:09.478Z,6.47
2019-05-12T01:20:38.926Z,6.45
2019-05-12T01:23:08.466Z,6.43
2019-05-12T01:25:39.442Z,6.40
2019-05-12T01:28:08.503Z,6.39
2019-05-12T01:30:38.984Z,6.37
2019-05-12T01:33:08.548Z,6.35
2019-05-12T01:35:38.819Z,6.33
2019-05-12T01:38:08.136Z,6.31
2019-05-12T01:40:39.518Z,6.28
2019-05-12T01:43:08.604Z,6.26
2019-05-12T01:45:38.081Z,6.25
2019-05-12T01:48:08.641Z,6.22
2019-05-12T01:50:38.615Z,6.19
2019-05-12T01:53:08.642Z,6.17
2019-05-12T01:55:38.900Z,6.15
2019-05-12T01:58:08.381Z,6.12
2019-05-12T02:00:38.894Z,6.10
2019-05-12T02:03:09.191Z,6.06
2019-05-12T02:05:39.743Z,6.05
2019-05-12T02:08:10.123Z,6.03
2019-05-12T02:10:39.017Z,6.01
2019-05-12T02:13:08.026Z,6.00
2019-05-12T02:15:38.325Z,5.99
2019-05-12T02:18:09.100Z,5.97
2019-05-12T02:20:38.320Z,5.96
2019-05-12T02:23:08.931Z,5.95
2019-05-12T02:25:38.183Z,5.96
2019-05-12T02:28:09.234Z,5.96
2019-05-12T02:30:41.674Z,5.94
2019-05-12T02:33:07.851Z,5.93
2019-05-12T02:35:36.336Z,5.94
2019-05-12T02:38:05.279Z,5.94
2019-05-12T02:40:35.006Z,5.97
2019-05-12T02:43:05.314Z,5.98
2019-05-12T02:45:35.569Z,5.99
2019-05-12T02:48:05.237Z,5.99
2019-05-12T02:50:54.507Z,6.01
2019-05-12T02:53:24.871Z,5.99
2019-05-12T02:55:55.586Z,5.99
2019-05-12T02:58:26.926Z,6.00
2019-05-12T03:00:57.583Z,6.03
2019-05-12T03:03:29.431Z,6.02
2019-05-12T03:06:00.375Z,6.03
2019-05-12T03:08:34.559Z,6.04
2019-05-12T03:11:08.150Z,6.04
2019-05-12T03:13:36.614Z,6.03
2019-05-12T03:16:05.261Z,6.02
2019-05-12T03:18:34.811Z,6.00
2019-05-12T03:21:05.573Z,5.98
2019-05-12T03:23:35.234Z,5.96
2019-05-12T03:26:05.196Z,5.95
2019-05-12T03:28:35.657Z,5.93
2019-05-12T03:31:07.851Z,5.93
2019-05-12T03:33:42.050Z,5.91
2019-05-12T03:36:09.118Z,5.91
2019-05-12T03:38:36.061Z,5.90
2019-05-12T03:41:05.518Z,5.90
2019-05-12T03:43:35.231Z,5.92
2019-05-12T03:46:05.246Z,5.93
2019-05-12T03:48:34.914Z,5.94
2019-05-12T03:51:05.671Z,5.95
2019-05-12T03:53:35.481Z,5.96
2019-05-12T03:56:04.510Z,5.98
2019-05-12T03:58:34.546Z,6.02
2019-05-12T04:01:04.841Z,6.03
2019-05-12T04:03:34.504Z,6.05
2019-05-12T04:06:04.788Z,6.09
2019-05-12T04:08:34.716Z,6.11
2019-05-12T04:11:05.354Z,6.14
2019-05-12T04:13:34.304Z,6.15
2019-05-12T04:16:04.871Z,6.18
2019-05-12T04:18:34.930Z,6.21
2019-05-12T04:21:05.446Z,6.24
2019-05-12T04:23:34.803Z,6.26
2019-05-12T04:26:10.996Z,6.30
2019-05-12T04:28:35.141Z,6.34
2019-05-12T04:31:05.522Z,6.37
2019-05-12T04:33:34.754Z,6.42
2019-05-12T04:36:05.534Z,6.47
2019-05-12T04:38:35.465Z,6.52
2019-05-12T04:41:05.764Z,6.60
2019-05-12T04:43:35.412Z,6.67
2019-05-12T04:46:05.110Z,6.74
2019-05-12T04:48:35.786Z,6.81
2019-05-12T04:51:05.117Z,6.88
2019-05-12T04:53:35.378Z,6.95
2019-05-12T04:56:14.744Z,7.02
2019-05-12T04:58:35.239Z,7.10
2019-05-12T05:01:06.320Z,7.19
2019-05-12T05:03:36.811Z,7.30
2019-05-12T05:06:05.266Z,7.38
2019-05-12T05:08:34.884Z,7.48
2019-05-12T05:11:04.927Z,7.56
2019-05-12T05:13:36.752Z,7.63
2019-05-12T05:16:05.427Z,7.70
2019-05-12T05:18:34.559Z,7.77
2019-05-12T05:21:04.710Z,7.85
2019-05-12T05:23:53.760Z,7.91
2019-05-12T05:26:27.841Z,8.00
2019-05-12T05:28:54.236Z,8.09
2019-05-12T05:31:24.350Z,8.16
2019-05-12T05:33:53.673Z,8.21
2019-05-12T05:36:22.267Z,8.26
2019-05-12T05:38:55.766Z,8.33
2019-05-12T05:41:20.888Z,8.39
2019-05-12T05:43:56.389Z,8.46
2019-05-12T05:46:19.479Z,8.56
2019-05-12T05:48:48.120Z,8.61
2019-05-12T05:51:16.583Z,8.69
2019-05-12T05:53:49.900Z,8.78
2019-05-12T05:56:18.170Z,8.86
2019-05-12T05:58:50.268Z,8.92
2019-05-12T06:01:15.649Z,8.97
2019-05-12T06:03:44.330Z,9.04
2019-05-12T06:06:15.239Z,9.12
2019-05-12T06:08:45.368Z,9.18
2019-05-12T06:11:23.035Z,9.25
2019-05-12T06:13:44.451Z,9.30
2019-05-12T06:16:20.181Z,9.35
2019-05-12T06:18:43.988Z,9.42
2019-05-12T06:21:13.751Z,9.51
2019-05-12T06:23:43.468Z,9.58
2019-05-12T06:26:14.019Z,9.63
2019-05-12T06:28:43.937Z,9.68
2019-05-12T06:31:13.814Z,9.71
2019-05-12T06:33:44.682Z,9.74
2019-05-12T06:36:21.752Z,9.76
2019-05-12T06:38:43.520Z,9.79
2019-05-12T06:41:20.268Z,9.83
2019-05-12T06:43:45.243Z,9.86
2019-05-12T06:46:20.519Z,9.92
2019-05-12T06:48:45.351Z,9.96
2019-05-12T06:51:16.998Z,9.98
2019-05-12T06:53:44.326Z,10.01
2019-05-12T06:56:17.566Z,10.11
2019-05-12T06:58:44.262Z,10.18
2019-05-12T07:01:19.237Z,10.24
2019-05-12T07:03:44.064Z,10.28
2019-05-12T07:06:17.950Z,10.34
2019-05-12T07:08:43.873Z,10.43
2019-05-12T07:11:14.271Z,10.54
2019-05-12T07:13:43.656Z,10.66
2019-05-12T07:16:21.482Z,10.72
2019-05-12T07:18:47.122Z,10.77
2019-05-12T07:21:20.149Z,10.86
2019-05-12T07:23:46.031Z,10.92
2019-05-12T07:26:19.318Z,11.00
2019-05-12T07:28:44.785Z,11.09
2019-05-12T07:31:14.231Z,11.15
2019-05-12T07:33:45.985Z,11.19
2019-05-12T07:36:13.952Z,11.25
2019-05-12T07:38:43.906Z,11.34
2019-05-12T07:41:14.720Z,11.43
2019-05-12T07:43:45.099Z,11.47
2019-05-12T07:46:14.902Z,11.50
2019-05-12T07:48:46.518Z,11.55
2019-05-12T07:51:14.396Z,11.58
2019-05-12T07:53:46.888Z,11.65
2019-05-12T07:56:14.428Z,11.74
2019-05-12T07:58:47.462Z,11.81
2019-05-12T08:01:14.578Z,11.90
2019-05-12T08:03:43.797Z,11.98
2019-05-12T08:06:14.112Z,12.03
2019-05-12T08:08:51.099Z,12.10
2019-05-12T08:11:14.953Z,12.20
2019-05-12T08:13:43.816Z,12.35
2019-05-12T08:16:14.293Z,12.51
2019-05-12T08:18:44.425Z,12.56
2019-05-12T08:21:13.987Z,12.52
2019-05-12T08:23:44.413Z,12.39
2019-05-12T08:26:18.394Z,12.36
2019-05-12T08:28:44.244Z,12.39
2019-05-12T08:31:14.074Z,12.46
2019-05-12T08:33:43.678Z,12.55
2019-05-12T08:36:16.078Z,12.69
2019-05-12T08:38:44.446Z,12.80
2019-05-12T08:41:14.537Z,12.97
2019-05-12T08:43:47.117Z,13.13
2019-05-12T08:46:15.686Z,13.19
2019-05-12T08:48:44.733Z,13.19
2019-05-12T08:51:14.551Z,13.06
2019-05-12T08:53:43.922Z,13.01
2019-05-12T08:56:18.973Z,13.03
2019-05-12T08:58:48.235Z,13.12
2019-05-12T09:01:13.801Z,13.21
2019-05-12T09:03:44.301Z,13.28
2019-05-12T09:06:15.525Z,13.38
2019-05-12T09:08:49.325Z,13.47
2019-05-12T09:11:15.671Z,13.51
2019-05-12T09:13:44.109Z,13.57
2019-05-12T09:16:13.798Z,13.63
2019-05-12T09:18:43.506Z,13.77
2019-05-12T09:21:14.071Z,13.86
2019-05-12T09:23:44.982Z,13.94
2019-05-12T09:26:13.551Z,13.98
2019-05-12T09:28:49.883Z,14.03
2019-05-12T09:31:14.138Z,14.11
2019-05-12T09:33:44.728Z,14.17
2019-05-12T09:36:19.751Z,14.21
2019-05-12T09:38:44.062Z,14.28
2019-05-12T09:41:14.010Z,14.33
2019-05-12T09:43:46.213Z,14.36
2019-05-12T09:46:14.411Z,14.36
2019-05-12T09:48:48.471Z,14.38
2019-05-12T09:51:16.932Z,14.40
2019-05-12T09:53:50.805Z,14.44
2019-05-12T09:56:14.126Z,14.47
2019-05-12T09:58:43.626Z,14.52
2019-05-12T10:01:13.996Z,14.59
2019-05-12T10:03:43.735Z,14.61
2019-05-12T10:06:17.946Z,14.63
2019-05-12T10:08:43.489Z,14.66
2019-05-12T10:11:16.577Z,14.68
2019-05-12T10:13:44.791Z,14.71
2019-05-12T10:16:13.452Z,14.79
2019-05-12T10:18:50.770Z,14.95
2019-05-12T10:21:15.496Z,15.04
2019-05-12T10:23:43.623Z,15.05
2019-05-12T10:26:14.778Z,15.07
2019-05-12T10:28:51.553Z,15.09
2019-05-12T10:31:13.866Z,15.12
2019-05-12T10:33:43.329Z,15.20
2019-05-12T10:36:11.887Z,15.21
2019-05-12T10:38:40.324Z,15.13
2019-05-12T10:41:08.972Z,15.04
2019-05-12T10:43:37.481Z,15.05
2019-05-12T10:46:05.910Z,15.13
2019-05-12T10:48:34.470Z,15.24
2019-05-12T10:51:03.012Z,15.33
2019-05-12T10:53:31.465Z,15.35
2019-05-12T10:56:00.205Z,15.15
2019-05-12T10:58:28.625Z,14.96
2019-05-12T11:00:58.875Z,14.95
2019-05-12T11:03:27.541Z,15.08
2019-05-12T11:06:02.393Z,15.18
2019-05-12T11:08:26.126Z,15.17
2019-05-12T11:10:59.313Z,15.18
2019-05-12T11:13:24.981Z,14.99
2019-05-12T11:15:54.583Z,14.89
2019-05-12T11:18:26.057Z,14.96
2019-05-12T11:20:54.376Z,15.15
2019-05-12T11:23:24.450Z,15.27
2019-05-12T11:25:53.641Z,15.36
2019-05-12T11:28:24.250Z,15.40
2019-05-12T11:30:52.270Z,15.45
2019-05-12T11:33:20.740Z,15.63
2019-05-12T11:35:53.908Z,15.66
2019-05-12T11:38:24.252Z,15.66
2019-05-12T11:40:53.879Z,15.73
2019-05-12T11:43:24.628Z,15.71
2019-05-12T11:45:53.620Z,15.46
2019-05-12T11:48:23.792Z,15.30
2019-05-12T11:50:54.505Z,15.20
2019-05-12T11:53:30.250Z,15.13
2019-05-12T11:55:54.853Z,15.03
2019-05-12T11:58:23.801Z,15.11
2019-05-12T12:00:58.572Z,15.28
2019-05-12T12:03:26.589Z,15.41
2019-05-12T12:05:56.919Z,15.50
2019-05-12T12:08:33.726Z,15.57
2019-05-12T12:11:01.211Z,15.59
2019-05-12T12:13:33.665Z,15.63
2019-05-12T12:16:07.031Z,15.72
2019-05-12T12:18:34.542Z,15.78
2019-05-12T12:21:07.682Z,15.89
2019-05-12T12:23:36.044Z,16.02
2019-05-12T12:26:06.149Z,16.24
2019-05-12T12:28:37.205Z,16.51
2019-05-12T12:31:07.826Z,16.72
2019-05-12T12:33:40.707Z,16.84
2019-05-12T12:36:09.057Z,16.82
2019-05-12T18:33:52.136Z,16.62
2019-05-12T18:36:14.613Z,16.62
2019-05-12T18:38:44.732Z,14.46
2019-05-12T18:41:13.989Z,14.16
2019-05-12T18:43:43.538Z,13.80
2019-05-12T18:46:14.026Z,13.46
2019-05-12T18:48:42.497Z,13.12
2019-05-12T18:51:12.213Z,12.83
2019-05-12T18:53:43.657Z,12.59
2019-05-12T18:56:19.934Z,12.40
2019-05-12T18:58:43.885Z,12.21
2019-05-12T19:01:13.942Z,12.00
2019-05-12T19:03:47.882Z,11.80
2019-05-12T19:06:14.131Z,11.67
2019-05-12T19:08:42.687Z,11.55
2019-05-12T19:11:20.052Z,11.43
2019-05-12T19:13:45.323Z,11.31
2019-05-12T19:16:11.700Z,11.24
2019-05-12T19:18:40.175Z,11.14
2019-05-12T19:21:10.303Z,11.06
2019-05-12T19:23:38.759Z,10.98
2019-05-12T19:26:07.270Z,10.93
2019-05-12T19:28:35.686Z,10.84
2019-05-12T19:31:06.080Z,10.75
2019-05-12T19:33:34.658Z,10.68
2019-05-12T19:36:05.393Z,10.58
2019-05-12T19:38:34.557Z,10.49
2019-05-12T19:41:04.716Z,10.42
2019-05-12T19:43:33.981Z,10.37
2019-05-12T19:46:03.732Z,10.30
2019-05-12T19:48:36.758Z,10.25
2019-05-12T19:51:17.958Z,10.19
2019-05-12T19:53:33.322Z,10.13
2019-05-12T19:56:03.787Z,10.08
2019-05-12T19:58:33.997Z,10.04
2019-05-12T20:01:03.611Z,10.01
2019-05-12T20:03:33.496Z,9.98
2019-05-12T20:06:02.184Z,9.91
2019-05-12T20:08:30.805Z,9.84
2019-05-12T20:10:59.276Z,9.76
2019-05-12T20:13:29.653Z,9.70
2019-05-12T20:15:57.912Z,9.64
2019-05-12T20:18:26.351Z,9.60
2019-05-12T20:20:55.025Z,9.55
2019-05-12T20:23:24.506Z,9.49
2019-05-12T20:25:53.608Z,9.45
2019-05-12T20:28:24.213Z,9.40
2019-05-12T20:31:00.976Z,9.36
2019-05-12T20:33:24.030Z,9.32
2019-05-12T20:35:54.679Z,9.29
2019-05-12T20:38:27.154Z,9.24
2019-05-12T20:40:54.030Z,9.21
2019-05-12T20:43:23.997Z,9.17
2019-05-12T20:45:52.804Z,9.11
2019-05-12T20:48:26.462Z,9.05
2019-05-12T20:50:51.671Z,8.98
2019-05-12T20:53:24.866Z,8.93
2019-05-12T20:55:50.269Z,8.90
2019-05-12T20:58:18.691Z,8.86
2019-05-12T21:00:50.145Z,8.81
2019-05-12T21:03:17.896Z,8.74
2019-05-12T21:05:50.676Z,8.69
2019-05-12T21:08:16.738Z,8.65
2019-05-12T21:10:45.386Z,8.61
2019-05-12T21:13:14.681Z,8.59
2019-05-12T21:15:45.783Z,8.56
2019-05-12T21:18:14.875Z,8.53
2019-05-12T21:20:46.444Z,8.48
2019-05-12T21:23:13.687Z,8.44
2019-05-12T21:25:43.840Z,8.42
2019-05-12T21:28:14.666Z,8.38
2019-05-12T21:30:48.116Z,8.35
2019-05-12T21:33:14.775Z,8.31
2019-05-12T21:35:45.840Z,8.25
2019-05-12T21:38:13.535Z,8.20
2019-05-12T21:40:44.154Z,8.16
2019-05-12T21:43:13.531Z,8.12
2019-05-12T21:45:42.171Z,8.04
2019-05-12T21:48:15.230Z,7.97
2019-05-12T21:50:40.754Z,7.93
2019-05-12T21:53:10.122Z,7.93
2019-05-12T21:55:39.565Z,7.91
2019-05-12T21:58:12.175Z,7.90
2019-05-12T22:00:45.065Z,7.87
2019-05-12T22:03:15.587Z,7.87
2019-05-12T22:05:51.676Z,7.87
2019-05-12T22:08:20.713Z,7.85
2019-05-12T22:10:45.862Z,7.82
2019-05-12T22:13:17.962Z,7.79
2019-05-12T22:15:45.022Z,7.77
2019-05-12T22:18:13.451Z,7.77
2019-05-12T22:20:44.477Z,7.74
2019-05-12T22:23:14.951Z,7.71
2019-05-12T22:25:43.597Z,7.66
2019-05-12T22:28:13.494Z,7.63
2019-05-12T22:30:43.797Z,7.58
2019-05-12T22:33:13.850Z,7.51
2019-05-12T22:35:44.355Z,7.48
2019-05-12T22:38:16.616Z,7.45
2019-05-12T22:40:43.146Z,7.45
2019-05-12T22:43:11.582Z,7.43
2019-05-12T22:45:49.148Z,7.39
2019-05-12T22:48:12.093Z,7.35
2019-05-12T22:50:40.552Z,7.34
2019-05-12T22:53:09.555Z,7.31
2019-05-12T22:55:38.011Z,7.27
2019-05-12T22:58:10.838Z,7.25
2019-05-12T23:00:37.140Z,7.25
2019-05-12T23:03:10.163Z,7.22
2019-05-12T23:05:36.252Z,7.20
2019-05-12T23:08:08.260Z,7.20
2019-05-12T23:10:35.040Z,7.17
2019-05-12T23:13:05.114Z,7.12
2019-05-12T23:15:38.865Z,7.07
2019-05-12T23:18:04.421Z,7.01
2019-05-12T23:20:35.533Z,6.95
2019-05-12T23:23:04.021Z,6.93
2019-05-12T23:25:33.771Z,6.89
2019-05-12T23:28:06.776Z,6.85
2019-05-12T23:30:32.660Z,6.86
2019-05-12T23:33:03.540Z,6.84
2019-05-12T23:35:37.295Z,6.82
2019-05-12T23:38:04.188Z,6.83
2019-05-12T23:40:34.382Z,6.80
2019-05-12T23:43:04.131Z,6.78
2019-05-12T23:45:33.981Z,6.75
2019-05-12T23:48:03.785Z,6.72
2019-05-12T23:50:32.742Z,6.70
2019-05-12T23:53:03.505Z,6.64
2019-05-12T23:55:34.712Z,6.62
2019-05-12T23:58:04.131Z,6.55
